sensor_id;sensor_type;location;lat;lon;timestamp;P1;durP1;ratioP1;P2;durP2;ratioP2
8574;SDS011;4325;42.520;27.448;2024-03-22T00:02:08;3.90;;;2.80;;
8574;SDS011;4325;42.520;27.448;2024-03-22T00:04:34;4.90;;;3.00;;
8574;SDS011;4325;42.520;27.448;2024-03-22T00:07:01;4.50;;;3.10;;
8574;SDS011;4325;42.520;27.448;2024-03-22T00:09:28;5.77;;;3.30;;
8574;SDS011;4325;42.520;27.448;2024-03-22T00:11:55;5.33;;;3.03;;
8574;SDS011;4325;42.520;27.448;2024-03-22T00:14:21;7.50;;;3.60;;
8574;SDS011;4325;42.520;27.448;2024-03-22T00:16:48;5.63;;;3.30;;
8574;SDS011;4325;42.520;27.448;2024-03-22T00:19:16;4.53;;;3.30;;
8574;SDS011;4325;42.520;27.448;2024-03-22T00:21:43;3.43;;;2.70;;
8574;SDS011;4325;42.520;27.448;2024-03-22T00:24:09;2.93;;;2.30;;
8574;SDS011;4325;42.520;27.448;2024-03-22T00:26:36;3.70;;;2.80;;
8574;SDS011;4325;42.520;27.448;2024-03-22T00:29:02;2.97;;;2.37;;
8574;SDS011;4325;42.520;27.448;2024-03-22T00:31:29;4.33;;;2.87;;
8574;SDS011;4325;42.520;27.448;2024-03-22T00:33:55;3.00;;;2.37;;
8574;SDS011;4325;42.520;27.448;2024-03-22T00:36:23;3.47;;;2.90;;
8574;SDS011;4325;42.520;27.448;2024-03-22T00:38:49;3.17;;;2.73;;
8574;SDS011;4325;42.520;27.448;2024-03-22T00:41:16;4.53;;;3.00;;
8574;SDS011;4325;42.520;27.448;2024-03-22T00:43:42;3.00;;;2.70;;
8574;SDS011;4325;42.520;27.448;2024-03-22T00:46:09;2.90;;;2.60;;
8574;SDS011;4325;42.520;27.448;2024-03-22T00:48:35;3.10;;;2.60;;
8574;SDS011;4325;42.520;27.448;2024-03-22T00:51:03;3.40;;;2.77;;
8574;SDS011;4325;42.520;27.448;2024-03-22T00:53:30;3.17;;;2.63;;
8574;SDS011;4325;42.520;27.448;2024-03-22T00:55:57;3.10;;;2.80;;
8574;SDS011;4325;42.520;27.448;2024-03-22T00:58:25;3.10;;;2.77;;
8574;SDS011;4325;42.520;27.448;2024-03-22T01:00:53;3.90;;;2.63;;
8574;SDS011;4325;42.520;27.448;2024-03-22T01:03:19;4.93;;;2.90;;
8574;SDS011;4325;42.520;27.448;2024-03-22T01:05:46;3.50;;;2.83;;
8574;SDS011;4325;42.520;27.448;2024-03-22T01:08:12;3.27;;;2.60;;
8574;SDS011;4325;42.520;27.448;2024-03-22T01:10:40;3.47;;;2.83;;
8574;SDS011;4325;42.520;27.448;2024-03-22T01:13:06;3.63;;;2.70;;
8574;SDS011;4325;42.520;27.448;2024-03-22T01:15:33;4.03;;;3.10;;
8574;SDS011;4325;42.520;27.448;2024-03-22T01:17:59;3.43;;;2.73;;
8574;SDS011;4325;42.520;27.448;2024-03-22T01:20:26;3.20;;;2.40;;
8574;SDS011;4325;42.520;27.448;2024-03-22T01:22:52;2.67;;;2.43;;
8574;SDS011;4325;42.520;27.448;2024-03-22T01:25:19;3.53;;;2.90;;
8574;SDS011;4325;42.520;27.448;2024-03-22T01:27:47;3.33;;;2.67;;
8574;SDS011;4325;42.520;27.448;2024-03-22T01:30:14;3.27;;;2.67;;
8574;SDS011;4325;42.520;27.448;2024-03-22T01:32:40;3.83;;;2.73;;
8574;SDS011;4325;42.520;27.448;2024-03-22T01:35:07;3.40;;;2.87;;
8574;SDS011;4325;42.520;27.448;2024-03-22T01:37:33;3.53;;;2.70;;
8574;SDS011;4325;42.520;27.448;2024-03-22T01:40:00;3.30;;;2.73;;
8574;SDS011;4325;42.520;27.448;2024-03-22T01:42:27;3.40;;;2.70;;
8574;SDS011;4325;42.520;27.448;2024-03-22T01:44:55;3.57;;;2.83;;
8574;SDS011;4325;42.520;27.448;2024-03-22T01:47:21;3.67;;;2.97;;
8574;SDS011;4325;42.520;27.448;2024-03-22T01:49:48;3.20;;;2.70;;
8574;SDS011;4325;42.520;27.448;2024-03-22T01:52:17;3.40;;;2.77;;
8574;SDS011;4325;42.520;27.448;2024-03-22T01:54:45;4.37;;;3.13;;
8574;SDS011;4325;42.520;27.448;2024-03-22T01:57:11;3.53;;;2.90;;
8574;SDS011;4325;42.520;27.448;2024-03-22T01:59:38;3.97;;;3.17;;
8574;SDS011;4325;42.520;27.448;2024-03-22T02:02:05;3.67;;;2.90;;
8574;SDS011;4325;42.520;27.448;2024-03-22T02:04:33;3.67;;;2.83;;
8574;SDS011;4325;42.520;27.448;2024-03-22T02:06:59;4.13;;;3.03;;
8574;SDS011;4325;42.520;27.448;2024-03-22T02:09:26;4.53;;;3.50;;
8574;SDS011;4325;42.520;27.448;2024-03-22T02:11:52;4.27;;;3.30;;
8574;SDS011;4325;42.520;27.448;2024-03-22T02:14:19;3.93;;;3.30;;
8574;SDS011;4325;42.520;27.448;2024-03-22T02:16:45;3.80;;;3.13;;
8574;SDS011;4325;42.520;27.448;2024-03-22T02:19:13;4.43;;;3.67;;
8574;SDS011;4325;42.520;27.448;2024-03-22T02:21:39;4.53;;;3.30;;
8574;SDS011;4325;42.520;27.448;2024-03-22T02:24:08;4.87;;;3.17;;
8574;SDS011;4325;42.520;27.448;2024-03-22T02:26:34;4.50;;;3.53;;
8574;SDS011;4325;42.520;27.448;2024-03-22T02:29:01;4.07;;;3.17;;
8574;SDS011;4325;42.520;27.448;2024-03-22T02:31:27;3.80;;;3.30;;
8574;SDS011;4325;42.520;27.448;2024-03-22T02:33:54;5.80;;;3.97;;
8574;SDS011;4325;42.520;27.448;2024-03-22T02:36:20;4.40;;;3.33;;
8574;SDS011;4325;42.520;27.448;2024-03-22T02:38:47;4.60;;;3.43;;
8574;SDS011;4325;42.520;27.448;2024-03-22T02:41:14;4.20;;;3.40;;
8574;SDS011;4325;42.520;27.448;2024-03-22T02:43:41;3.83;;;3.20;;
8574;SDS011;4325;42.520;27.448;2024-03-22T02:46:07;4.90;;;3.87;;
8574;SDS011;4325;42.520;27.448;2024-03-22T02:48:34;5.20;;;4.00;;
8574;SDS011;4325;42.520;27.448;2024-03-22T02:51:00;4.03;;;3.43;;
8574;SDS011;4325;42.520;27.448;2024-03-22T02:53:28;5.53;;;3.90;;
8574;SDS011;4325;42.520;27.448;2024-03-22T02:55:54;7.00;;;3.80;;
8574;SDS011;4325;42.520;27.448;2024-03-22T02:58:23;5.20;;;3.80;;
8574;SDS011;4325;42.520;27.448;2024-03-22T03:00:49;5.27;;;4.33;;
8574;SDS011;4325;42.520;27.448;2024-03-22T03:03:16;4.70;;;3.77;;
8574;SDS011;4325;42.520;27.448;2024-03-22T03:05:42;5.20;;;3.77;;
8574;SDS011;4325;42.520;27.448;2024-03-22T03:08:09;5.77;;;3.97;;
8574;SDS011;4325;42.520;27.448;2024-03-22T03:10:35;6.93;;;4.07;;
8574;SDS011;4325;42.520;27.448;2024-03-22T03:13:02;6.10;;;4.10;;
8574;SDS011;4325;42.520;27.448;2024-03-22T03:15:30;5.73;;;4.13;;
8574;SDS011;4325;42.520;27.448;2024-03-22T03:17:57;5.83;;;4.33;;
8574;SDS011;4325;42.520;27.448;2024-03-22T03:20:23;5.93;;;4.17;;
8574;SDS011;4325;42.520;27.448;2024-03-22T03:22:52;7.23;;;4.90;;
8574;SDS011;4325;42.520;27.448;2024-03-22T03:25:18;6.27;;;4.40;;
8574;SDS011;4325;42.520;27.448;2024-03-22T03:27:45;7.60;;;4.63;;
8574;SDS011;4325;42.520;27.448;2024-03-22T03:30:11;6.20;;;4.37;;
8574;SDS011;4325;42.520;27.448;2024-03-22T03:32:39;6.07;;;4.20;;
8574;SDS011;4325;42.520;27.448;2024-03-22T03:35:05;6.97;;;5.17;;
8574;SDS011;4325;42.520;27.448;2024-03-22T03:37:33;5.80;;;4.37;;
8574;SDS011;4325;42.520;27.448;2024-03-22T03:39:59;6.93;;;4.63;;
8574;SDS011;4325;42.520;27.448;2024-03-22T03:42:26;5.63;;;4.23;;
8574;SDS011;4325;42.520;27.448;2024-03-22T03:44:52;5.33;;;4.37;;
8574;SDS011;4325;42.520;27.448;2024-03-22T03:47:19;6.60;;;4.73;;
8574;SDS011;4325;42.520;27.448;2024-03-22T03:49:46;7.63;;;5.40;;
8574;SDS011;4325;42.520;27.448;2024-03-22T03:52:14;6.53;;;4.53;;
8574;SDS011;4325;42.520;27.448;2024-03-22T03:54:40;5.40;;;4.37;;
8574;SDS011;4325;42.520;27.448;2024-03-22T03:57:07;6.90;;;4.97;;
8574;SDS011;4325;42.520;27.448;2024-03-22T03:59:33;5.80;;;4.40;;
8574;SDS011;4325;42.520;27.448;2024-03-22T04:02:00;6.93;;;4.77;;
8574;SDS011;4325;42.520;27.448;2024-03-22T04:04:26;7.27;;;5.20;;
8574;SDS011;4325;42.520;27.448;2024-03-22T04:06:54;7.67;;;4.43;;
8574;SDS011;4325;42.520;27.448;2024-03-22T04:09:20;7.73;;;4.80;;
8574;SDS011;4325;42.520;27.448;2024-03-22T04:11:50;8.87;;;5.50;;
8574;SDS011;4325;42.520;27.448;2024-03-22T04:14:16;7.60;;;5.07;;
8574;SDS011;4325;42.520;27.448;2024-03-22T04:16:43;7.73;;;5.00;;
8574;SDS011;4325;42.520;27.448;2024-03-22T04:19:09;7.83;;;5.17;;
8574;SDS011;4325;42.520;27.448;2024-03-22T04:21:36;6.87;;;4.40;;
8574;SDS011;4325;42.520;27.448;2024-03-22T04:24:04;8.33;;;4.93;;
8574;SDS011;4325;42.520;27.448;2024-03-22T04:26:31;7.53;;;5.60;;
8574;SDS011;4325;42.520;27.448;2024-03-22T04:28:57;10.50;;;5.50;;
8574;SDS011;4325;42.520;27.448;2024-03-22T04:31:24;8.90;;;5.47;;
8574;SDS011;4325;42.520;27.448;2024-03-22T04:33:50;8.93;;;5.20;;
8574;SDS011;4325;42.520;27.448;2024-03-22T04:36:17;9.20;;;4.83;;
8574;SDS011;4325;42.520;27.448;2024-03-22T04:38:43;8.87;;;5.60;;
8574;SDS011;4325;42.520;27.448;2024-03-22T04:41:12;8.43;;;5.43;;
8574;SDS011;4325;42.520;27.448;2024-03-22T04:43:39;10.07;;;5.43;;
8574;SDS011;4325;42.520;27.448;2024-03-22T04:46:06;8.70;;;5.67;;
8574;SDS011;4325;42.520;27.448;2024-03-22T04:48:32;7.03;;;4.83;;
8574;SDS011;4325;42.520;27.448;2024-03-22T04:50:59;7.23;;;4.63;;
8574;SDS011;4325;42.520;27.448;2024-03-22T04:53:25;6.60;;;4.47;;
8574;SDS011;4325;42.520;27.448;2024-03-22T04:55:52;6.93;;;4.90;;
8574;SDS011;4325;42.520;27.448;2024-03-22T04:58:20;8.93;;;6.10;;
8574;SDS011;4325;42.520;27.448;2024-03-22T05:00:47;7.27;;;4.80;;
8574;SDS011;4325;42.520;27.448;2024-03-22T05:03:14;7.13;;;4.97;;
8574;SDS011;4325;42.520;27.448;2024-03-22T05:05:42;7.83;;;4.97;;
8574;SDS011;4325;42.520;27.448;2024-03-22T05:08:08;6.30;;;4.57;;
8574;SDS011;4325;42.520;27.448;2024-03-22T05:10:36;7.73;;;4.60;;
8574;SDS011;4325;42.520;27.448;2024-03-22T05:13:02;8.90;;;5.37;;
8574;SDS011;4325;42.520;27.448;2024-03-22T05:15:30;7.40;;;4.37;;
8574;SDS011;4325;42.520;27.448;2024-03-22T05:17:56;9.37;;;5.37;;
8574;SDS011;4325;42.520;27.448;2024-03-22T05:20:24;14.33;;;6.93;;
8574;SDS011;4325;42.520;27.448;2024-03-22T05:22:50;11.93;;;6.17;;
8574;SDS011;4325;42.520;27.448;2024-03-22T05:25:17;14.50;;;6.73;;
8574;SDS011;4325;42.520;27.448;2024-03-22T05:27:44;12.20;;;6.37;;
8574;SDS011;4325;42.520;27.448;2024-03-22T05:30:12;9.80;;;6.57;;
8574;SDS011;4325;42.520;27.448;2024-03-22T05:32:40;15.43;;;7.07;;
8574;SDS011;4325;42.520;27.448;2024-03-22T05:35:07;16.87;;;8.97;;
8574;SDS011;4325;42.520;27.448;2024-03-22T05:37:34;19.20;;;9.40;;
8574;SDS011;4325;42.520;27.448;2024-03-22T05:40:01;16.70;;;8.47;;
8574;SDS011;4325;42.520;27.448;2024-03-22T05:42:29;16.30;;;9.07;;
8574;SDS011;4325;42.520;27.448;2024-03-22T05:44:56;19.53;;;8.43;;
8574;SDS011;4325;42.520;27.448;2024-03-22T05:47:22;8.53;;;5.60;;
8574;SDS011;4325;42.520;27.448;2024-03-22T05:49:50;12.13;;;6.33;;
8574;SDS011;4325;42.520;27.448;2024-03-22T05:52:17;8.50;;;5.17;;
8574;SDS011;4325;42.520;27.448;2024-03-22T05:54:44;10.27;;;4.83;;
8574;SDS011;4325;42.520;27.448;2024-03-22T05:57:11;6.83;;;4.33;;
8574;SDS011;4325;42.520;27.448;2024-03-22T05:59:38;6.93;;;4.53;;
8574;SDS011;4325;42.520;27.448;2024-03-22T06:02:07;5.60;;;4.30;;
8574;SDS011;4325;42.520;27.448;2024-03-22T06:04:34;7.37;;;5.23;;
8574;SDS011;4325;42.520;27.448;2024-03-22T06:07:01;6.47;;;5.10;;
8574;SDS011;4325;42.520;27.448;2024-03-22T06:09:29;6.70;;;4.80;;
8574;SDS011;4325;42.520;27.448;2024-03-22T06:12:02;7.37;;;4.63;;
8574;SDS011;4325;42.520;27.448;2024-03-22T06:14:30;9.03;;;5.63;;
8574;SDS011;4325;42.520;27.448;2024-03-22T06:16:56;5.60;;;4.30;;
8574;SDS011;4325;42.520;27.448;2024-03-22T06:19:23;6.87;;;4.97;;
8574;SDS011;4325;42.520;27.448;2024-03-22T06:21:49;5.97;;;4.30;;
8574;SDS011;4325;42.520;27.448;2024-03-22T06:24:17;6.40;;;4.23;;
8574;SDS011;4325;42.520;27.448;2024-03-22T06:26:44;6.37;;;4.73;;
8574;SDS011;4325;42.520;27.448;2024-03-22T06:29:11;5.93;;;4.27;;
8574;SDS011;4325;42.520;27.448;2024-03-22T06:31:37;7.83;;;4.17;;
8574;SDS011;4325;42.520;27.448;2024-03-22T06:34:04;6.47;;;4.87;;
8574;SDS011;4325;42.520;27.448;2024-03-22T06:36:30;5.70;;;4.20;;
8574;SDS011;4325;42.520;27.448;2024-03-22T06:38:58;5.40;;;4.50;;
8574;SDS011;4325;42.520;27.448;2024-03-22T06:41:25;5.33;;;4.27;;
8574;SDS011;4325;42.520;27.448;2024-03-22T06:43:54;4.83;;;4.00;;
8574;SDS011;4325;42.520;27.448;2024-03-22T06:46:20;9.00;;;5.23;;
8574;SDS011;4325;42.520;27.448;2024-03-22T06:48:48;5.83;;;4.53;;
8574;SDS011;4325;42.520;27.448;2024-03-22T06:51:14;5.40;;;4.30;;
8574;SDS011;4325;42.520;27.448;2024-03-22T06:53:41;5.83;;;4.37;;
8574;SDS011;4325;42.520;27.448;2024-03-22T06:56:07;10.23;;;4.17;;
8574;SDS011;4325;42.520;27.448;2024-03-22T06:58:38;4.57;;;3.27;;
8574;SDS011;4325;42.520;27.448;2024-03-22T07:01:04;5.47;;;3.90;;
8574;SDS011;4325;42.520;27.448;2024-03-22T07:03:31;4.73;;;4.03;;
8574;SDS011;4325;42.520;27.448;2024-03-22T07:05:58;5.77;;;4.17;;
8574;SDS011;4325;42.520;27.448;2024-03-22T07:08:25;6.63;;;3.53;;
8574;SDS011;4325;42.520;27.448;2024-03-22T07:10:52;8.03;;;4.17;;
8574;SDS011;4325;42.520;27.448;2024-03-22T07:13:19;5.00;;;4.13;;
8574;SDS011;4325;42.520;27.448;2024-03-22T07:15:47;5.00;;;4.37;;
8574;SDS011;4325;42.520;27.448;2024-03-22T07:18:14;4.50;;;3.87;;
8574;SDS011;4325;42.520;27.448;2024-03-22T07:20:40;6.87;;;3.80;;
8574;SDS011;4325;42.520;27.448;2024-03-22T07:23:08;5.83;;;4.37;;
8574;SDS011;4325;42.520;27.448;2024-03-22T07:25:34;6.50;;;4.40;;
8574;SDS011;4325;42.520;27.448;2024-03-22T07:28:01;9.00;;;5.13;;
8574;SDS011;4325;42.520;27.448;2024-03-22T07:30:27;4.63;;;3.53;;
8574;SDS011;4325;42.520;27.448;2024-03-22T07:32:55;4.60;;;3.83;;
8574;SDS011;4325;42.520;27.448;2024-03-22T07:35:21;6.07;;;4.00;;
8574;SDS011;4325;42.520;27.448;2024-03-22T07:37:50;6.37;;;3.27;;
8574;SDS011;4325;42.520;27.448;2024-03-22T07:40:16;3.93;;;3.53;;
8574;SDS011;4325;42.520;27.448;2024-03-22T07:42:43;6.90;;;5.13;;
8574;SDS011;4325;42.520;27.448;2024-03-22T07:45:09;4.30;;;3.87;;
8574;SDS011;4325;42.520;27.448;2024-03-22T07:47:36;4.03;;;3.63;;
8574;SDS011;4325;42.520;27.448;2024-03-22T07:50:04;4.00;;;3.60;;
8574;SDS011;4325;42.520;27.448;2024-03-22T07:52:32;5.43;;;3.50;;
8574;SDS011;4325;42.520;27.448;2024-03-22T07:54:58;4.20;;;3.50;;
8574;SDS011;4325;42.520;27.448;2024-03-22T07:57:27;3.47;;;3.17;;
8574;SDS011;4325;42.520;27.448;2024-03-22T07:59:53;4.00;;;3.40;;
8574;SDS011;4325;42.520;27.448;2024-03-22T08:02:20;3.60;;;3.30;;
8574;SDS011;4325;42.520;27.448;2024-03-22T08:04:46;3.30;;;3.00;;
8574;SDS011;4325;42.520;27.448;2024-03-22T08:07:15;3.70;;;3.40;;
8574;SDS011;4325;42.520;27.448;2024-03-22T08:09:41;3.90;;;3.13;;
8574;SDS011;4325;42.520;27.448;2024-03-22T08:12:08;6.73;;;3.33;;
8574;SDS011;4325;42.520;27.448;2024-03-22T08:14:34;3.10;;;2.90;;
8574;SDS011;4325;42.520;27.448;2024-03-22T08:17:01;3.57;;;3.27;;
8574;SDS011;4325;42.520;27.448;2024-03-22T08:19:28;4.57;;;3.40;;
8574;SDS011;4325;42.520;27.448;2024-03-22T08:21:55;3.67;;;3.23;;
8574;SDS011;4325;42.520;27.448;2024-03-22T08:24:23;5.20;;;4.23;;
8574;SDS011;4325;42.520;27.448;2024-03-22T08:26:51;3.70;;;3.40;;
8574;SDS011;4325;42.520;27.448;2024-03-22T08:29:17;5.60;;;3.63;;
8574;SDS011;4325;42.520;27.448;2024-03-22T08:31:44;4.33;;;3.53;;
8574;SDS011;4325;42.520;27.448;2024-03-22T08:34:10;3.60;;;3.30;;
8574;SDS011;4325;42.520;27.448;2024-03-22T08:36:37;6.53;;;3.13;;
8574;SDS011;4325;42.520;27.448;2024-03-22T08:39:03;3.00;;;2.70;;
8574;SDS011;4325;42.520;27.448;2024-03-22T08:41:33;2.57;;;2.37;;
8574;SDS011;4325;42.520;27.448;2024-03-22T08:43:59;3.70;;;2.93;;
8574;SDS011;4325;42.520;27.448;2024-03-22T08:46:27;3.87;;;2.37;;
8574;SDS011;4325;42.520;27.448;2024-03-22T08:48:53;3.10;;;2.80;;
8574;SDS011;4325;42.520;27.448;2024-03-22T08:51:20;4.40;;;2.43;;
8574;SDS011;4325;42.520;27.448;2024-03-22T08:53:46;3.97;;;2.63;;
8574;SDS011;4325;42.520;27.448;2024-03-22T08:56:13;4.27;;;2.50;;
8574;SDS011;4325;42.520;27.448;2024-03-22T08:58:41;3.70;;;2.90;;
8574;SDS011;4325;42.520;27.448;2024-03-22T09:01:08;2.93;;;2.73;;
8574;SDS011;4325;42.520;27.448;2024-03-22T09:03:35;3.40;;;2.63;;
8574;SDS011;4325;42.520;27.448;2024-03-22T09:06:03;2.50;;;2.30;;
8574;SDS011;4325;42.520;27.448;2024-03-22T09:08:29;3.40;;;2.23;;
8574;SDS011;4325;42.520;27.448;2024-03-22T09:10:56;2.67;;;2.47;;
8574;SDS011;4325;42.520;27.448;2024-03-22T09:13:22;3.03;;;2.58;;
8574;SDS011;4325;42.520;27.448;2024-03-22T09:15:57;4.72;;;2.63;;
8574;SDS011;4325;42.520;27.448;2024-03-22T09:18:23;2.50;;;2.30;;
8574;SDS011;4325;42.520;27.448;2024-03-22T09:20:50;3.85;;;2.50;;
8574;SDS011;4325;42.520;27.448;2024-03-22T09:23:16;2.53;;;2.33;;
8574;SDS011;4325;42.520;27.448;2024-03-22T09:25:43;3.45;;;2.35;;
8574;SDS011;4325;42.520;27.448;2024-03-22T09:28:09;2.88;;;2.45;;
8574;SDS011;4325;42.520;27.448;2024-03-22T09:30:37;2.58;;;2.38;;
8574;SDS011;4325;42.520;27.448;2024-03-22T09:33:05;3.95;;;2.40;;
8574;SDS011;4325;42.520;27.448;2024-03-22T09:35:33;4.40;;;2.30;;
8574;SDS011;4325;42.520;27.448;2024-03-22T09:37:59;3.50;;;2.47;;
8574;SDS011;4325;42.520;27.448;2024-03-22T09:40:26;8.20;;;2.60;;
8574;SDS011;4325;42.520;27.448;2024-03-22T09:42:52;2.60;;;2.40;;
8574;SDS011;4325;42.520;27.448;2024-03-22T09:45:20;2.78;;;2.50;;
8574;SDS011;4325;42.520;27.448;2024-03-22T09:47:46;2.58;;;2.40;;
8574;SDS011;4325;42.520;27.448;2024-03-22T09:50:18;3.40;;;2.53;;
8574;SDS011;4325;42.520;27.448;2024-03-22T09:52:44;3.33;;;2.40;;
8574;SDS011;4325;42.520;27.448;2024-03-22T09:55:12;4.15;;;2.72;;
8574;SDS011;4325;42.520;27.448;2024-03-22T09:57:38;4.35;;;2.88;;
8574;SDS011;4325;42.520;27.448;2024-03-22T10:00:08;2.83;;;2.53;;
8574;SDS011;4325;42.520;27.448;2024-03-22T10:02:34;2.70;;;2.50;;
8574;SDS011;4325;42.520;27.448;2024-03-22T10:05:03;2.65;;;2.45;;
8574;SDS011;4325;42.520;27.448;2024-03-22T10:07:31;3.08;;;2.38;;
8574;SDS011;4325;42.520;27.448;2024-03-22T10:10:00;2.60;;;2.40;;
8574;SDS011;4325;42.520;27.448;2024-03-22T10:12:26;2.42;;;2.22;;
8574;SDS011;4325;42.520;27.448;2024-03-22T10:14:53;2.78;;;2.58;;
8574;SDS011;4325;42.520;27.448;2024-03-22T10:17:19;2.30;;;2.20;;
8574;SDS011;4325;42.520;27.448;2024-03-22T10:19:48;2.53;;;2.20;;
8574;SDS011;4325;42.520;27.448;2024-03-22T10:22:16;2.35;;;2.20;;
8574;SDS011;4325;42.520;27.448;2024-03-22T10:24:44;3.38;;;2.28;;
8574;SDS011;4325;42.520;27.448;2024-03-22T10:27:10;2.15;;;2.03;;
8574;SDS011;4325;42.520;27.448;2024-03-22T10:29:37;3.25;;;2.70;;
8574;SDS011;4325;42.520;27.448;2024-03-22T10:32:04;2.13;;;2.03;;
8574;SDS011;4325;42.520;27.448;2024-03-22T10:34:31;2.40;;;2.20;;
8574;SDS011;4325;42.520;27.448;2024-03-22T10:36:58;2.22;;;2.03;;
8574;SDS011;4325;42.520;27.448;2024-03-22T10:39:27;2.10;;;2.00;;
8574;SDS011;4325;42.520;27.448;2024-03-22T10:41:55;2.35;;;2.22;;
8574;SDS011;4325;42.520;27.448;2024-03-22T10:44:22;2.15;;;2.03;;
8574;SDS011;4325;42.520;27.448;2024-03-22T10:46:48;2.50;;;2.30;;
8574;SDS011;4325;42.520;27.448;2024-03-22T10:49:17;5.13;;;2.40;;
8574;SDS011;4325;42.520;27.448;2024-03-22T10:51:46;5.75;;;2.30;;
8574;SDS011;4325;42.520;27.448;2024-03-22T10:54:16;2.58;;;2.38;;
8574;SDS011;4325;42.520;27.448;2024-03-22T10:56:47;2.30;;;2.20;;
8574;SDS011;4325;42.520;27.448;2024-03-22T10:59:19;2.58;;;2.38;;
8574;SDS011;4325;42.520;27.448;2024-03-22T11:01:47;4.05;;;2.65;;
8574;SDS011;4325;42.520;27.448;2024-03-22T11:04:15;6.68;;;2.90;;
8574;SDS011;4325;42.520;27.448;2024-03-22T11:06:46;3.10;;;2.90;;
8574;SDS011;4325;42.520;27.448;2024-03-22T11:09:18;3.42;;;2.45;;
8574;SDS011;4325;42.520;27.448;2024-03-22T11:11:46;3.50;;;2.83;;
8574;SDS011;4325;42.520;27.448;2024-03-22T11:14:13;3.55;;;2.35;;
8574;SDS011;4325;42.520;27.448;2024-03-22T11:16:43;5.30;;;2.60;;
8574;SDS011;4325;42.520;27.448;2024-03-22T11:19:10;3.20;;;2.90;;
8574;SDS011;4325;42.520;27.448;2024-03-22T11:21:37;2.53;;;2.33;;
8574;SDS011;4325;42.520;27.448;2024-03-22T11:24:04;2.50;;;2.30;;
8574;SDS011;4325;42.520;27.448;2024-03-22T11:26:31;2.20;;;2.10;;
8574;SDS011;4325;42.520;27.448;2024-03-22T11:28:58;2.30;;;2.10;;
8574;SDS011;4325;42.520;27.448;2024-03-22T11:31:24;2.47;;;2.10;;
8574;SDS011;4325;42.520;27.448;2024-03-22T11:33:54;2.13;;;2.03;;
8574;SDS011;4325;42.520;27.448;2024-03-22T11:36:20;2.53;;;2.20;;
8574;SDS011;4325;42.520;27.448;2024-03-22T11:38:47;2.13;;;2.00;;
8574;SDS011;4325;42.520;27.448;2024-03-22T11:41:15;2.67;;;2.47;;
8574;SDS011;4325;42.520;27.448;2024-03-22T11:43:44;2.72;;;2.30;;
8574;SDS011;4325;42.520;27.448;2024-03-22T11:46:11;2.53;;;2.20;;
8574;SDS011;4325;42.520;27.448;2024-03-22T11:48:39;2.55;;;2.45;;
8574;SDS011;4325;42.520;27.448;2024-03-22T11:51:08;2.30;;;2.20;;
8574;SDS011;4325;42.520;27.448;2024-03-22T11:53:35;2.22;;;2.13;;
8574;SDS011;4325;42.520;27.448;2024-03-22T11:56:01;2.58;;;2.40;;
8574;SDS011;4325;42.520;27.448;2024-03-22T11:58:30;2.70;;;2.50;;
8574;SDS011;4325;42.520;27.448;2024-03-22T12:00:56;2.35;;;2.20;;
8574;SDS011;4325;42.520;27.448;2024-03-22T12:03:23;2.33;;;2.20;;
8574;SDS011;4325;42.520;27.448;2024-03-22T12:05:49;2.20;;;2.10;;
8574;SDS011;4325;42.520;27.448;2024-03-22T12:08:21;2.05;;;1.95;;
8574;SDS011;4325;42.520;27.448;2024-03-22T12:10:47;2.22;;;2.03;;
8574;SDS011;4325;42.520;27.448;2024-03-22T12:13:14;2.60;;;2.40;;
8574;SDS011;4325;42.520;27.448;2024-03-22T12:15:40;2.25;;;2.10;;
8574;SDS011;4325;42.520;27.448;2024-03-22T12:18:07;2.38;;;2.17;;
8574;SDS011;4325;42.520;27.448;2024-03-22T12:20:33;2.30;;;2.10;;
8574;SDS011;4325;42.520;27.448;2024-03-22T12:23:00;2.28;;;2.17;;
8574;SDS011;4325;42.520;27.448;2024-03-22T12:25:28;2.30;;;2.20;;
8574;SDS011;4325;42.520;27.448;2024-03-22T12:27:55;2.13;;;2.03;;
8574;SDS011;4325;42.520;27.448;2024-03-22T12:30:21;2.15;;;2.05;;
8574;SDS011;4325;42.520;27.448;2024-03-22T12:32:48;2.13;;;1.92;;
8574;SDS011;4325;42.520;27.448;2024-03-22T12:35:14;2.40;;;2.20;;
8574;SDS011;4325;42.520;27.448;2024-03-22T12:37:41;3.03;;;2.83;;
8574;SDS011;4325;42.520;27.448;2024-03-22T12:40:08;3.97;;;2.67;;
8574;SDS011;4325;42.520;27.448;2024-03-22T12:42:38;3.10;;;2.50;;
8574;SDS011;4325;42.520;27.448;2024-03-22T12:45:04;2.70;;;2.50;;
8574;SDS011;4325;42.520;27.448;2024-03-22T12:47:32;3.10;;;2.80;;
8574;SDS011;4325;42.520;27.448;2024-03-22T12:49:58;2.90;;;2.70;;
8574;SDS011;4325;42.520;27.448;2024-03-22T12:52:26;2.70;;;2.50;;
8574;SDS011;4325;42.520;27.448;2024-03-22T12:54:51;3.03;;;2.80;;
8574;SDS011;4325;42.520;27.448;2024-03-22T12:57:18;6.80;;;2.60;;
8574;SDS011;4325;42.520;27.448;2024-03-22T12:59:46;2.93;;;2.50;;
8574;SDS011;4325;42.520;27.448;2024-03-22T13:02:13;3.00;;;2.73;;
8574;SDS011;4325;42.520;27.448;2024-03-22T13:04:39;2.63;;;2.43;;
8574;SDS011;4325;42.520;27.448;2024-03-22T13:07:06;3.03;;;2.83;;
8574;SDS011;4325;42.520;27.448;2024-03-22T13:09:32;2.77;;;2.53;;
8574;SDS011;4325;42.520;27.448;2024-03-22T13:11:59;2.60;;;2.40;;
8574;SDS011;4325;42.520;27.448;2024-03-22T13:14:25;2.63;;;2.43;;
8574;SDS011;4325;42.520;27.448;2024-03-22T13:16:54;2.33;;;2.23;;
8574;SDS011;4325;42.520;27.448;2024-03-22T13:19:20;3.30;;;2.70;;
8574;SDS011;4325;42.520;27.448;2024-03-22T13:21:47;2.92;;;2.65;;
8574;SDS011;4325;42.520;27.448;2024-03-22T13:24:13;3.50;;;3.20;;
8574;SDS011;4325;42.520;27.448;2024-03-22T13:26:40;2.80;;;2.60;;
8574;SDS011;4325;42.520;27.448;2024-03-22T13:29:06;3.00;;;2.80;;
8574;SDS011;4325;42.520;27.448;2024-03-22T13:31:33;2.77;;;2.40;;
8574;SDS011;4325;42.520;27.448;2024-03-22T13:34:01;2.20;;;2.10;;
8574;SDS011;4325;42.520;27.448;2024-03-22T13:36:29;2.60;;;2.40;;
8574;SDS011;4325;42.520;27.448;2024-03-22T13:38:57;2.43;;;2.23;;
8574;SDS011;4325;42.520;27.448;2024-03-22T13:41:24;2.40;;;2.20;;
8574;SDS011;4325;42.520;27.448;2024-03-22T13:43:50;5.23;;;2.30;;
8574;SDS011;4325;42.520;27.448;2024-03-22T13:46:17;3.20;;;2.60;;
8574;SDS011;4325;42.520;27.448;2024-03-22T13:48:43;2.50;;;2.30;;
8574;SDS011;4325;42.520;27.448;2024-03-22T13:51:12;2.50;;;2.30;;
8574;SDS011;4325;42.520;27.448;2024-03-22T13:53:38;2.57;;;2.37;;
8574;SDS011;4325;42.520;27.448;2024-03-22T13:56:05;2.93;;;2.73;;
8574;SDS011;4325;42.520;27.448;2024-03-22T13:58:31;2.10;;;2.00;;
8574;SDS011;4325;42.520;27.448;2024-03-22T14:00:59;2.73;;;2.47;;
8574;SDS011;4325;42.520;27.448;2024-03-22T14:03:25;4.17;;;2.60;;
8574;SDS011;4325;42.520;27.448;2024-03-22T14:05:52;2.47;;;2.27;;
8574;SDS011;4325;42.520;27.448;2024-03-22T14:08:20;2.40;;;2.30;;
8574;SDS011;4325;42.520;27.448;2024-03-22T14:10:47;3.90;;;2.13;;
8574;SDS011;4325;42.520;27.448;2024-03-22T14:13:13;2.53;;;2.37;;
8574;SDS011;4325;42.520;27.448;2024-03-22T14:15:40;6.20;;;2.60;;
8574;SDS011;4325;42.520;27.448;2024-03-22T14:18:06;4.20;;;2.50;;
8574;SDS011;4325;42.520;27.448;2024-03-22T14:20:34;4.17;;;2.70;;
8574;SDS011;4325;42.520;27.448;2024-03-22T14:23:00;2.97;;;2.77;;
8574;SDS011;4325;42.520;27.448;2024-03-22T14:25:30;2.60;;;2.40;;
8574;SDS011;4325;42.520;27.448;2024-03-22T14:27:57;2.50;;;2.30;;
8574;SDS011;4325;42.520;27.448;2024-03-22T14:30:24;4.77;;;2.80;;
8574;SDS011;4325;42.520;27.448;2024-03-22T14:32:50;3.77;;;2.70;;
8574;SDS011;4325;42.520;27.448;2024-03-22T14:35:17;2.83;;;2.63;;
8574;SDS011;4325;42.520;27.448;2024-03-22T14:37:43;3.00;;;2.80;;
8574;SDS011;4325;42.520;27.448;2024-03-22T14:40:11;6.37;;;3.20;;
8574;SDS011;4325;42.520;27.448;2024-03-22T14:42:38;4.70;;;4.30;;
8574;SDS011;4325;42.520;27.448;2024-03-22T14:45:05;3.20;;;3.00;;
8574;SDS011;4325;42.520;27.448;2024-03-22T14:47:34;2.87;;;2.67;;
8574;SDS011;4325;42.520;27.448;2024-03-22T14:50:02;3.13;;;2.93;;
8574;SDS011;4325;42.520;27.448;2024-03-22T14:52:28;2.80;;;2.60;;
8574;SDS011;4325;42.520;27.448;2024-03-22T14:54:56;4.90;;;3.30;;
8574;SDS011;4325;42.520;27.448;2024-03-22T14:57:22;4.23;;;2.80;;
8574;SDS011;4325;42.520;27.448;2024-03-22T14:59:51;2.90;;;2.70;;